sensor_id;sensor_type;location;lat;lon;timestamp;P1;P2;P0
73825;PMS5003;64145;55.060;73.168;2023-05-29T00:00:00;30.00;28.00;18.50
73825;PMS5003;64145;55.060;73.168;2023-05-29T00:02:25;29.00;28.00;17.00
73825;PMS5003;64145;55.060;73.168;2023-05-29T00:04:51;30.00;29.00;18.00
73825;PMS5003;64145;55.060;73.168;2023-05-29T00:07:16;33.33;30.33;19.00
73825;PMS5003;64145;55.060;73.168;2023-05-29T00:09:42;40.67;33.67;22.00
73825;PMS5003;64145;55.060;73.168;2023-05-29T00:12:07;41.00;33.33;22.00
73825;PMS5003;64145;55.060;73.168;2023-05-29T00:14:33;38.00;31.00;21.00
73825;PMS5003;64145;55.060;73.168;2023-05-29T00:16:58;39.00;32.00;20.67
73825;PMS5003;64145;55.060;73.168;2023-05-29T00:22:08;34.00;30.00;20.50
73825;PMS5003;64145;55.060;73.168;2023-05-29T00:24:52;33.75;31.00;21.25
73825;PMS5003;64145;55.060;73.168;2023-05-29T00:27:18;40.33;33.67;22.00
73825;PMS5003;64145;55.060;73.168;2023-05-29T00:29:43;39.33;34.00;23.00
73825;PMS5003;64145;55.060;73.168;2023-05-29T00:32:09;40.00;33.00;21.33
73825;PMS5003;64145;55.060;73.168;2023-05-29T00:34:35;36.00;31.00;20.00
73825;PMS5003;64145;55.060;73.168;2023-05-29T00:37:19;34.50;30.50;20.00
73825;PMS5003;64145;55.060;73.168;2023-05-29T00:42:31;49.00;40.75;26.00
73825;PMS5003;64145;55.060;73.168;2023-05-29T00:44:57;54.67;44.00;27.33
73825;PMS5003;64145;55.060;73.168;2023-05-29T00:47:23;53.25;44.00;28.00
73825;PMS5003;64145;55.060;73.168;2023-05-29T00:49:49;46.33;38.33;24.67
73825;PMS5003;64145;55.060;73.168;2023-05-29T00:52:16;45.25;38.50;24.25
73825;PMS5003;64145;55.060;73.168;2023-05-29T00:54:43;42.25;36.00;22.50
73825;PMS5003;64145;55.060;73.168;2023-05-29T00:57:09;39.75;34.00;23.00
73825;PMS5003;64145;55.060;73.168;2023-05-29T00:59:35;31.33;29.00;20.33
73825;PMS5003;64145;55.060;73.168;2023-05-29T01:02:01;26.33;24.33;17.00
73825;PMS5003;64145;55.060;73.168;2023-05-29T01:09:56;22.00;20.00;8.25
73825;PMS5003;64145;55.060;73.168;2023-05-29T01:27:41;21.75;21.00;13.00
73825;PMS5003;64145;55.060;73.168;2023-05-29T01:30:07;24.50;21.00;12.00
73825;PMS5003;64145;55.060;73.168;2023-05-29T01:32:34;24.50;22.50;14.75
73825;PMS5003;64145;55.060;73.168;2023-05-29T01:35:00;25.00;22.00;14.00
73825;PMS5003;64145;55.060;73.168;2023-05-29T01:37:25;23.00;21.67;13.00
73825;PMS5003;64145;55.060;73.168;2023-05-29T01:39:53;23.00;21.00;12.00
73825;PMS5003;64145;55.060;73.168;2023-05-29T01:42:19;22.33;20.00;13.00
73825;PMS5003;64145;55.060;73.168;2023-05-29T01:44:44;22.00;19.00;11.67
73825;PMS5003;64145;55.060;73.168;2023-05-29T01:47:11;21.50;19.50;13.00
73825;PMS5003;64145;55.060;73.168;2023-05-29T01:49:37;21.75;20.75;10.00
73825;PMS5003;64145;55.060;73.168;2023-05-29T01:52:21;20.00;19.00;8.00
73825;PMS5003;64145;55.060;73.168;2023-05-29T01:54:47;20.00;20.00;8.00
73825;PMS5003;64145;55.060;73.168;2023-05-29T01:57:12;19.00;19.00;9.00
73825;PMS5003;64145;55.060;73.168;2023-05-29T01:59:38;19.00;18.00;7.00
73825;PMS5003;64145;55.060;73.168;2023-05-29T02:02:07;18.00;18.00;8.67
73825;PMS5003;64145;55.060;73.168;2023-05-29T02:07:36;12.75;12.50;5.25
73825;PMS5003;64145;55.060;73.168;2023-05-29T02:10:04;11.50;10.00;5.00
73825;PMS5003;64145;55.060;73.168;2023-05-29T02:12:30;10.25;9.00;6.00
73825;PMS5003;64145;55.060;73.168;2023-05-29T02:14:56;9.67;9.00;5.00
73825;PMS5003;64145;55.060;73.168;2023-05-29T02:20:25;9.50;9.00;4.75
73825;PMS5003;64145;55.060;73.168;2023-05-29T02:25:35;10.00;10.00;4.00
73825;PMS5003;64145;55.060;73.168;2023-05-29T02:31:02;11.00;10.00;4.50
73825;PMS5003;64145;55.060;73.168;2023-05-29T02:33:28;7.00;7.00;4.00
73825;PMS5003;64145;55.060;73.168;2023-05-29T02:36:12;10.25;8.25;4.00
73825;PMS5003;64145;55.060;73.168;2023-05-29T02:38:37;9.00;8.00;4.00
73825;PMS5003;64145;55.060;73.168;2023-05-29T02:41:21;6.00;5.00;3.00
73825;PMS5003;64145;55.060;73.168;2023-05-29T02:43:47;5.00;4.00;3.00
73825;PMS5003;64145;55.060;73.168;2023-05-29T02:46:14;5.00;5.00;3.00
73825;PMS5003;64145;55.060;73.168;2023-05-29T02:48:40;6.00;6.00;3.00
73825;PMS5003;64145;55.060;73.168;2023-05-29T02:51:05;4.00;4.00;2.00
73825;PMS5003;64145;55.060;73.168;2023-05-29T02:53:31;5.00;4.00;4.00
73825;PMS5003;64145;55.060;73.168;2023-05-29T02:55:57;4.00;4.00;2.00
73825;PMS5003;64145;55.060;73.168;2023-05-29T02:58:22;6.00;6.00;2.67
73825;PMS5003;64145;55.060;73.168;2023-05-29T03:00:48;4.00;4.00;2.00
73825;PMS5003;64145;55.060;73.168;2023-05-29T03:03:13;7.00;6.00;4.00
73825;PMS5003;64145;55.060;73.168;2023-05-29T03:05:39;6.00;6.00;3.00
73825;PMS5003;64145;55.060;73.168;2023-05-29T03:08:04;6.00;6.00;3.00
73825;PMS5003;64145;55.060;73.168;2023-05-29T03:10:30;4.33;4.33;2.00
73825;PMS5003;64145;55.060;73.168;2023-05-29T03:12:56;3.00;3.00;1.00
73825;PMS5003;64145;55.060;73.168;2023-05-29T03:15:21;3.67;3.67;1.00
73825;PMS5003;64145;55.060;73.168;2023-05-29T03:18:05;7.50;7.50;3.50
73825;PMS5003;64145;55.060;73.168;2023-05-29T03:23:15;4.25;3.75;1.00
73825;PMS5003;64145;55.060;73.168;2023-05-29T03:25:40;4.00;4.00;1.00
73825;PMS5003;64145;55.060;73.168;2023-05-29T03:28:06;4.67;2.67;0.00
73825;PMS5003;64145;55.060;73.168;2023-05-29T03:30:31;2.33;1.33;0.00
73825;PMS5003;64145;55.060;73.168;2023-05-29T03:32:57;3.00;3.00;0.33
73825;PMS5003;64145;55.060;73.168;2023-05-29T03:35:28;2.25;2.25;0.00
73825;PMS5003;64145;55.060;73.168;2023-05-29T03:37:54;4.00;4.00;0.67
73825;PMS5003;64145;55.060;73.168;2023-05-29T03:40:19;4.33;4.33;0.33
73825;PMS5003;64145;55.060;73.168;2023-05-29T03:42:45;4.33;4.33;0.00
73825;PMS5003;64145;55.060;73.168;2023-05-29T03:45:31;4.00;4.00;0.00
73825;PMS5003;64145;55.060;73.168;2023-05-29T03:48:15;3.00;3.00;0.00
73825;PMS5003;64145;55.060;73.168;2023-05-29T03:50:40;13.00;10.33;4.00
73825;PMS5003;64145;55.060;73.168;2023-05-29T03:53:06;8.67;5.00;3.00
73825;PMS5003;64145;55.060;73.168;2023-05-29T03:55:31;4.67;4.67;3.00
73825;PMS5003;64145;55.060;73.168;2023-05-29T03:57:57;6.33;5.33;2.33
73825;PMS5003;64145;55.060;73.168;2023-05-29T04:03:25;2.00;2.00;0.00
73825;PMS5003;64145;55.060;73.168;2023-05-29T04:05:50;3.00;3.00;1.00
73825;PMS5003;64145;55.060;73.168;2023-05-29T04:08:16;4.00;4.00;1.00
73825;PMS5003;64145;55.060;73.168;2023-05-29T04:10:41;4.33;3.33;1.33
73825;PMS5003;64145;55.060;73.168;2023-05-29T04:15:51;5.50;5.00;2.50
73825;PMS5003;64145;55.060;73.168;2023-05-29T04:18:17;4.00;4.00;2.00
73825;PMS5003;64145;55.060;73.168;2023-05-29T04:20:43;3.00;3.00;2.00
73825;PMS5003;64145;55.060;73.168;2023-05-29T04:23:12;6.50;5.25;1.00
73825;PMS5003;64145;55.060;73.168;2023-05-29T04:25:38;4.75;4.50;2.50
73825;PMS5003;64145;55.060;73.168;2023-05-29T04:28:03;4.67;4.67;2.00
73825;PMS5003;64145;55.060;73.168;2023-05-29T04:30:29;4.33;4.33;2.00
73825;PMS5003;64145;55.060;73.168;2023-05-29T04:32:55;5.75;5.50;2.50
73825;PMS5003;64145;55.060;73.168;2023-05-29T04:35:22;6.00;6.00;3.00
73825;PMS5003;64145;55.060;73.168;2023-05-29T04:37:48;5.67;5.00;2.00
73825;PMS5003;64145;55.060;73.168;2023-05-29T04:40:13;5.00;5.00;2.00
73825;PMS5003;64145;55.060;73.168;2023-05-29T04:42:42;9.00;9.00;4.50
73825;PMS5003;64145;55.060;73.168;2023-05-29T04:45:09;8.75;6.00;3.00
73825;PMS5003;64145;55.060;73.168;2023-05-29T04:47:38;8.75;8.00;4.00
73825;PMS5003;64145;55.060;73.168;2023-05-29T04:50:13;10.25;10.25;4.75
73825;PMS5003;64145;55.060;73.168;2023-05-29T04:52:38;10.00;9.67;5.00
73825;PMS5003;64145;55.060;73.168;2023-05-29T04:57:48;14.50;14.50;7.25
73825;PMS5003;64145;55.060;73.168;2023-05-29T05:00:14;15.00;15.00;6.00
73825;PMS5003;64145;55.060;73.168;2023-05-29T05:02:42;15.33;15.33;6.33
73825;PMS5003;64145;55.060;73.168;2023-05-29T05:07:53;16.75;15.00;7.00
73825;PMS5003;64145;55.060;73.168;2023-05-29T05:10:19;17.00;16.00;7.00
73825;PMS5003;64145;55.060;73.168;2023-05-29T05:12:44;15.67;15.67;7.00
73825;PMS5003;64145;55.060;73.168;2023-05-29T05:15:10;16.25;16.25;8.00
73825;PMS5003;64145;55.060;73.168;2023-05-29T05:17:36;18.33;17.33;7.00
73825;PMS5003;64145;55.060;73.168;2023-05-29T05:22:45;18.50;16.50;9.00
73825;PMS5003;64145;55.060;73.168;2023-05-29T05:25:11;20.00;17.00;9.00
73825;PMS5003;64145;55.060;73.168;2023-05-29T05:27:37;20.33;17.00;9.00
73825;PMS5003;64145;55.060;73.168;2023-05-29T05:32:46;19.25;16.00;6.00
73825;PMS5003;64145;55.060;73.168;2023-05-29T05:35:12;16.00;13.00;5.00
73825;PMS5003;64145;55.060;73.168;2023-05-29T05:37:38;16.00;12.00;5.00
73825;PMS5003;64145;55.060;73.168;2023-05-29T05:40:04;18.00;13.00;6.00
73825;PMS5003;64145;55.060;73.168;2023-05-29T05:42:32;17.75;14.00;7.00
73825;PMS5003;64145;55.060;73.168;2023-05-29T05:44:57;19.00;13.00;6.50
73825;PMS5003;64145;55.060;73.168;2023-05-29T05:47:23;16.33;12.33;6.33
73825;PMS5003;64145;55.060;73.168;2023-05-29T05:49:49;15.33;13.33;6.00
73825;PMS5003;64145;55.060;73.168;2023-05-29T05:52:19;16.25;15.75;5.00
73825;PMS5003;64145;55.060;73.168;2023-05-29T05:54:45;16.00;15.00;6.00
73825;PMS5003;64145;55.060;73.168;2023-05-29T05:57:11;15.75;14.75;6.00
73825;PMS5003;64145;55.060;73.168;2023-05-29T05:59:36;12.00;10.00;5.00
73825;PMS5003;64145;55.060;73.168;2023-05-29T06:02:02;11.67;9.67;5.33
73825;PMS5003;64145;55.060;73.168;2023-05-29T06:04:28;12.00;11.00;6.00
73825;PMS5003;64145;55.060;73.168;2023-05-29T06:06:54;8.75;8.50;4.00
73825;PMS5003;64145;55.060;73.168;2023-05-29T06:09:20;7.00;7.00;3.00
73825;PMS5003;64145;55.060;73.168;2023-05-29T06:11:46;7.50;7.50;3.50
73825;PMS5003;64145;55.060;73.168;2023-05-29T06:14:13;7.00;7.00;4.50
73825;PMS5003;64145;55.060;73.168;2023-05-29T06:16:39;7.50;7.25;4.00
73825;PMS5003;64145;55.060;73.168;2023-05-29T06:19:04;8.00;7.00;3.00
73825;PMS5003;64145;55.060;73.168;2023-05-29T06:21:31;7.00;6.33;4.00
73825;PMS5003;64145;55.060;73.168;2023-05-29T06:23:57;8.75;8.00;3.00
73825;PMS5003;64145;55.060;73.168;2023-05-29T06:26:22;7.00;7.00;3.00
73825;PMS5003;64145;55.060;73.168;2023-05-29T06:28:50;8.00;7.00;4.00
73825;PMS5003;64145;55.060;73.168;2023-05-29T06:33:59;8.00;7.50;4.50
73825;PMS5003;64145;55.060;73.168;2023-05-29T06:36:25;8.00;8.00;4.67
73825;PMS5003;64145;55.060;73.168;2023-05-29T06:38:51;9.00;9.00;6.00
73825;PMS5003;64145;55.060;73.168;2023-05-29T06:44:01;7.25;7.00;3.00
73825;PMS5003;64145;55.060;73.168;2023-05-29T06:46:27;5.67;4.67;2.00
73825;PMS5003;64145;55.060;73.168;2023-05-29T06:48:52;8.00;7.00;3.00
73825;PMS5003;64145;55.060;73.168;2023-05-29T06:51:18;6.00;6.00;2.00
73825;PMS5003;64145;55.060;73.168;2023-05-29T06:59:12;8.00;8.00;4.50
73825;PMS5003;64145;55.060;73.168;2023-05-29T07:01:37;8.33;8.33;2.67
73825;PMS5003;64145;55.060;73.168;2023-05-29T07:04:21;7.50;7.50;4.50
73825;PMS5003;64145;55.060;73.168;2023-05-29T07:06:46;7.00;7.00;4.00
73825;PMS5003;64145;55.060;73.168;2023-05-29T07:11:56;7.25;7.25;5.00
73825;PMS5003;64145;55.060;73.168;2023-05-29T07:14:21;7.00;7.00;3.00
73825;PMS5003;64145;55.060;73.168;2023-05-29T07:16:50;7.00;7.00;4.00
73825;PMS5003;64145;55.060;73.168;2023-05-29T07:19:15;7.00;6.00;4.00
73825;PMS5003;64145;55.060;73.168;2023-05-29T07:21:42;6.50;6.50;3.00
73825;PMS5003;64145;55.060;73.168;2023-05-29T07:24:08;6.67;6.00;4.00
73825;PMS5003;64145;55.060;73.168;2023-05-29T07:26:33;9.00;9.00;4.00
73825;PMS5003;64145;55.060;73.168;2023-05-29T07:28:59;15.67;15.00;9.33
73825;PMS5003;64145;55.060;73.168;2023-05-29T07:34:09;12.00;9.50;5.00
73825;PMS5003;64145;55.060;73.168;2023-05-29T07:37:03;10.00;7.00;4.00
73825;PMS5003;64145;55.060;73.168;2023-05-29T07:39:32;7.00;7.00;3.00
73825;PMS5003;64145;55.060;73.168;2023-05-29T07:41:59;9.00;9.00;5.00
73825;PMS5003;64145;55.060;73.168;2023-05-29T07:44:24;8.00;8.00;5.00
73825;PMS5003;64145;55.060;73.168;2023-05-29T07:46:50;7.00;7.00;4.00
73825;PMS5003;64145;55.060;73.168;2023-05-29T07:49:17;7.25;7.25;3.00
73825;PMS5003;64145;55.060;73.168;2023-05-29T07:51:42;9.67;7.67;4.33
73825;PMS5003;64145;55.060;73.168;2023-05-29T07:54:08;9.00;7.00;3.00
73825;PMS5003;64145;55.060;73.168;2023-05-29T07:56:33;8.33;7.33;4.33
73825;PMS5003;64145;55.060;73.168;2023-05-29T07:59:13;8.25;7.00;4.00
73825;PMS5003;64145;55.060;73.168;2023-05-29T08:01:38;7.33;6.00;4.00
73825;PMS5003;64145;55.060;73.168;2023-05-29T08:04:08;7.50;7.00;4.00
73825;PMS5003;64145;55.060;73.168;2023-05-29T08:06:34;8.00;8.00;5.00
73825;PMS5003;64145;55.060;73.168;2023-05-29T08:09:00;25.00;20.67;15.00
73825;PMS5003;64145;55.060;73.168;2023-05-29T08:11:25;17.67;17.67;10.00
73825;PMS5003;64145;55.060;73.168;2023-05-29T08:13:51;15.00;15.00;6.00
73825;PMS5003;64145;55.060;73.168;2023-05-29T08:19:01;15.00;11.00;6.50
73825;PMS5003;64145;55.060;73.168;2023-05-29T08:24:11;12.00;9.00;5.00
73825;PMS5003;64145;55.060;73.168;2023-05-29T08:26:36;11.00;9.00;5.00
73825;PMS5003;64145;55.060;73.168;2023-05-29T08:29:20;10.00;9.00;6.00
73825;PMS5003;64145;55.060;73.168;2023-05-29T08:31:46;8.00;6.00;4.00
73825;PMS5003;64145;55.060;73.168;2023-05-29T08:34:11;9.00;8.00;5.00
73825;PMS5003;64145;55.060;73.168;2023-05-29T08:39:39;6.50;6.50;3.00
73825;PMS5003;64145;55.060;73.168;2023-05-29T08:42:07;8.33;8.33;4.33
73825;PMS5003;64145;55.060;73.168;2023-05-29T08:44:33;9.00;8.00;5.00
73825;PMS5003;64145;55.060;73.168;2023-05-29T08:47:01;8.00;8.00;4.00
73825;PMS5003;64145;55.060;73.168;2023-05-29T08:49:29;7.50;7.50;4.50
73825;PMS5003;64145;55.060;73.168;2023-05-29T08:52:02;7.25;7.25;5.00
73825;PMS5003;64145;55.060;73.168;2023-05-29T08:54:31;8.50;7.50;4.00
73825;PMS5003;64145;55.060;73.168;2023-05-29T09:05:11;9.00;9.00;4.00
73825;PMS5003;64145;55.060;73.168;2023-05-29T09:07:38;8.00;8.00;3.00
73825;PMS5003;64145;55.060;73.168;2023-05-29T09:10:10;7.50;7.50;3.75
73825;PMS5003;64145;55.060;73.168;2023-05-29T09:12:36;10.00;10.00;5.25
73825;PMS5003;64145;55.060;73.168;2023-05-29T09:15:02;9.00;8.50;6.00
73825;PMS5003;64145;55.060;73.168;2023-05-29T09:17:31;9.00;8.67;6.00
73825;PMS5003;64145;55.060;73.168;2023-05-29T09:19:58;9.00;8.00;5.00
73825;PMS5003;64145;55.060;73.168;2023-05-29T09:22:23;9.00;9.00;6.00
73825;PMS5003;64145;55.060;73.168;2023-05-29T09:25:02;10.00;10.00;5.50
73825;PMS5003;64145;55.060;73.168;2023-05-29T09:27:45;14.00;13.00;7.00
73825;PMS5003;64145;55.060;73.168;2023-05-29T09:30:30;12.00;11.00;4.00
73825;PMS5003;64145;55.060;73.168;2023-05-29T09:32:56;10.00;9.00;4.00
73825;PMS5003;64145;55.060;73.168;2023-05-29T09:35:21;8.00;8.00;5.00
73825;PMS5003;64145;55.060;73.168;2023-05-29T09:37:47;13.00;13.00;6.00
73825;PMS5003;64145;55.060;73.168;2023-05-29T09:40:12;8.67;8.67;5.00
73825;PMS5003;64145;55.060;73.168;2023-05-29T09:42:38;9.00;9.00;5.00
73825;PMS5003;64145;55.060;73.168;2023-05-29T09:45:04;10.00;10.00;7.00
73825;PMS5003;64145;55.060;73.168;2023-05-29T09:47:32;13.00;13.00;5.25
73825;PMS5003;64145;55.060;73.168;2023-05-29T09:49:58;11.00;10.25;5.00
73825;PMS5003;64145;55.060;73.168;2023-05-29T09:52:25;12.00;10.00;6.00
73825;PMS5003;64145;55.060;73.168;2023-05-29T09:54:51;13.00;12.00;7.00
73825;PMS5003;64145;55.060;73.168;2023-05-29T09:57:17;14.50;14.50;8.00
73825;PMS5003;64145;55.060;73.168;2023-05-29T09:59:43;14.33;13.33;7.00
73825;PMS5003;64145;55.060;73.168;2023-05-29T10:02:10;16.00;15.00;7.00
73825;PMS5003;64145;55.060;73.168;2023-05-29T10:04:40;17.00;17.00;7.25
73825;PMS5003;64145;55.060;73.168;2023-05-29T10:07:10;16.00;16.00;7.00
73825;PMS5003;64145;55.060;73.168;2023-05-29T10:09:41;11.25;11.25;5.00
73825;PMS5003;64145;55.060;73.168;2023-05-29T10:12:13;12.00;12.00;7.50
73825;PMS5003;64145;55.060;73.168;2023-05-29T10:14:41;13.00;12.50;6.75
73825;PMS5003;64145;55.060;73.168;2023-05-29T10:17:08;12.25;9.25;5.00
73825;PMS5003;64145;55.060;73.168;2023-05-29T10:19:36;13.00;11.50;6.50
73825;PMS5003;64145;55.060;73.168;2023-05-29T10:22:02;15.00;15.00;6.75
73825;PMS5003;64145;55.060;73.168;2023-05-29T10:24:29;14.25;14.25;6.25
73825;PMS5003;64145;55.060;73.168;2023-05-29T10:26:56;12.00;12.00;5.00
73825;PMS5003;64145;55.060;73.168;2023-05-29T10:39:53;19.00;19.00;8.00
73825;PMS5003;64145;55.060;73.168;2023-05-29T10:45:06;20.50;20.50;9.75
73825;PMS5003;64145;55.060;73.168;2023-05-29T10:47:32;20.00;20.00;8.00
73825;PMS5003;64145;55.060;73.168;2023-05-29T10:50:01;21.00;21.00;9.00
73825;PMS5003;64145;55.060;73.168;2023-05-29T10:52:36;22.50;20.50;8.50
73825;PMS5003;64145;55.060;73.168;2023-05-29T10:55:10;19.50;19.00;8.00
73825;PMS5003;64145;55.060;73.168;2023-05-29T10:57:36;18.33;17.67;8.33
73825;PMS5003;64145;55.060;73.168;2023-05-29T11:00:03;17.00;16.00;7.50
73825;PMS5003;64145;55.060;73.168;2023-05-29T11:02:31;16.00;15.00;6.00
73825;PMS5003;64145;55.060;73.168;2023-05-29T11:10:42;14.00;11.00;5.75
73825;PMS5003;64145;55.060;73.168;2023-05-29T11:13:12;14.00;12.00;6.00
73825;PMS5003;64145;55.060;73.168;2023-05-29T11:15:48;17.00;14.75;8.75
73825;PMS5003;64145;55.060;73.168;2023-05-29T11:18:13;17.00;15.00;7.00
73825;PMS5003;64145;55.060;73.168;2023-05-29T11:23:24;17.00;13.00;6.00
73825;PMS5003;64145;55.060;73.168;2023-05-29T11:29:05;16.00;12.25;6.75
73825;PMS5003;64145;55.060;73.168;2023-05-29T11:31:36;18.75;18.75;10.00
73825;PMS5003;64145;55.060;73.168;2023-05-29T11:34:02;21.00;19.00;9.00
73825;PMS5003;64145;55.060;73.168;2023-05-29T11:36:32;20.25;18.50;8.50
73825;PMS5003;64145;55.060;73.168;2023-05-29T11:38:58;20.50;19.50;11.00
73825;PMS5003;64145;55.060;73.168;2023-05-29T11:41:25;20.00;20.00;11.00
73825;PMS5003;64145;55.060;73.168;2023-05-29T11:46:40;18.00;18.00;8.00
73825;PMS5003;64145;55.060;73.168;2023-05-29T11:49:06;17.50;17.50;7.00
73825;PMS5003;64145;55.060;73.168;2023-05-29T11:51:32;19.00;18.00;8.00
73825;PMS5003;64145;55.060;73.168;2023-05-29T11:53:57;19.00;19.00;8.33
73825;PMS5003;64145;55.060;73.168;2023-05-29T11:56:29;17.25;17.25;8.50
73825;PMS5003;64145;55.060;73.168;2023-05-29T11:58:55;19.75;19.75;9.00
73825;PMS5003;64145;55.060;73.168;2023-05-29T12:01:25;17.00;17.00;7.75
73825;PMS5003;64145;55.060;73.168;2023-05-29T12:03:52;19.00;17.00;9.00
73825;PMS5003;64145;55.060;73.168;2023-05-29T12:06:33;22.00;20.00;11.00
73825;PMS5003;64145;55.060;73.168;2023-05-29T12:09:03;26.75;25.00;14.00
73825;PMS5003;64145;55.060;73.168;2023-05-29T12:11:30;29.25;28.00;16.75
73825;PMS5003;64145;55.060;73.168;2023-05-29T12:13:58;25.33;24.33;14.00
73825;PMS5003;64145;55.060;73.168;2023-05-29T12:19:11;19.75;19.50;12.00
73825;PMS5003;64145;55.060;73.168;2023-05-29T12:21:40;21.00;21.00;11.00
73825;PMS5003;64145;55.060;73.168;2023-05-29T12:24:24;18.00;18.00;8.25
73825;PMS5003;64145;55.060;73.168;2023-05-29T12:26:50;18.33;18.00;9.00
73825;PMS5003;64145;55.060;73.168;2023-05-29T12:29:16;17.50;17.00;8.75
73825;PMS5003;64145;55.060;73.168;2023-05-29T12:31:41;28.00;27.67;17.33
73825;PMS5003;64145;55.060;73.168;2023-05-29T12:34:11;28.00;27.00;18.00
73825;PMS5003;64145;55.060;73.168;2023-05-29T12:36:42;27.00;26.00;18.00
73825;PMS5003;64145;55.060;73.168;2023-05-29T12:41:54;37.00;32.75;21.75
73825;PMS5003;64145;55.060;73.168;2023-05-29T12:44:20;47.67;38.67;25.33
73825;PMS5003;64145;55.060;73.168;2023-05-29T12:46:45;44.00;37.00;24.00
73825;PMS5003;64145;55.060;73.168;2023-05-29T12:49:12;37.25;33.00;22.00
73825;PMS5003;64145;55.060;73.168;2023-05-29T12:51:56;27.25;27.00;19.00
73825;PMS5003;64145;55.060;73.168;2023-05-29T12:54:29;23.00;22.00;15.00
73825;PMS5003;64145;55.060;73.168;2023-05-29T12:56:55;20.67;20.67;14.00
73825;PMS5003;64145;55.060;73.168;2023-05-29T12:59:21;22.00;21.00;13.00
73825;PMS5003;64145;55.060;73.168;2023-05-29T13:01:46;21.00;21.00;12.00
73825;PMS5003;64145;55.060;73.168;2023-05-29T13:04:12;19.00;19.00;11.00
73825;PMS5003;64145;55.060;73.168;2023-05-29T13:06:38;29.00;28.67;19.00
73825;PMS5003;64145;55.060;73.168;2023-05-29T13:09:03;32.75;30.00;21.00
73825;PMS5003;64145;55.060;73.168;2023-05-29T13:11:30;26.25;25.00;18.00
73825;PMS5003;64145;55.060;73.168;2023-05-29T13:13:57;23.00;22.00;17.00
73825;PMS5003;64145;55.060;73.168;2023-05-29T13:16:22;20.00;19.00;15.00
73825;PMS5003;64145;55.060;73.168;2023-05-29T13:18:48;19.33;17.33;12.00
73825;PMS5003;64145;55.060;73.168;2023-05-29T13:21:14;18.67;17.33;9.00
73825;PMS5003;64145;55.060;73.168;2023-05-29T13:23:39;17.00;15.33;7.00
73825;PMS5003;64145;55.060;73.168;2023-05-29T13:26:06;17.00;16.00;7.00
73825;PMS5003;64145;55.060;73.168;2023-05-29T13:28:32;19.00;19.00;10.00
73825;PMS5003;64145;55.060;73.168;2023-05-29T13:33:43;36.25;30.75;20.00
73825;PMS5003;64145;55.060;73.168;2023-05-29T13:36:09;36.00;31.75;21.00
73825;PMS5003;64145;55.060;73.168;2023-05-29T13:38:35;39.25;33.75;22.00
73825;PMS5003;64145;55.060;73.168;2023-05-29T13:41:01;40.00;34.00;22.00
73825;PMS5003;64145;55.060;73.168;2023-05-29T13:43:26;34.67;31.00;21.00
73825;PMS5003;64145;55.060;73.168;2023-05-29T13:45:52;30.00;29.00;19.67
73825;PMS5003;64145;55.060;73.168;2023-05-29T13:48:17;25.33;24.33;18.00
73825;PMS5003;64145;55.060;73.168;2023-05-29T13:53:27;23.00;21.00;13.75
73825;PMS5003;64145;55.060;73.168;2023-05-29T13:55:53;19.00;19.00;10.00
73825;PMS5003;64145;55.060;73.168;2023-05-29T13:58:18;21.00;19.00;9.00
73825;PMS5003;64145;55.060;73.168;2023-05-29T14:03:28;21.00;19.00;8.75
73825;PMS5003;64145;55.060;73.168;2023-05-29T14:05:57;20.00;18.00;9.00
73825;PMS5003;64145;55.060;73.168;2023-05-29T14:08:23;19.67;18.00;9.00
73825;PMS5003;64145;55.060;73.168;2023-05-29T14:10:49;18.00;17.00;7.67
73825;PMS5003;64145;55.060;73.168;2023-05-29T14:13:16;18.00;18.00;8.75
73825;PMS5003;64145;55.060;73.168;2023-05-29T14:15:41;19.00;19.00;8.00
73825;PMS5003;64145;55.060;73.168;2023-05-29T14:18:07;18.00;18.00;7.00
73825;PMS5003;64145;55.060;73.168;2023-05-29T14:20:33;20.00;18.33;10.00
73825;PMS5003;64145;55.060;73.168;2023-05-29T14:22:59;20.00;19.00;8.00
73825;PMS5003;64145;55.060;73.168;2023-05-29T14:25:24;15.00;15.00;6.00
73825;PMS5003;64145;55.060;73.168;2023-05-29T14:30:42;17.00;15.00;6.25
73825;PMS5003;64145;55.060;73.168;2023-05-29T14:33:08;15.75;14.75;7.75
73825;PMS5003;64145;55.060;73.168;2023-05-29T14:35:33;23.00;20.00;10.00
73825;PMS5003;64145;55.060;73.168;2023-05-29T14:37:59;27.67;26.33;13.00
73825;PMS5003;64145;55.060;73.168;2023-05-29T14:43:12;27.00;26.00;17.00
73825;PMS5003;64145;55.060;73.168;2023-05-29T14:45:38;26.00;24.00;16.00
73825;PMS5003;64145;55.060;73.168;2023-05-29T14:48:04;22.00;21.00;15.00
73825;PMS5003;64145;55.060;73.168;2023-05-29T14:53:14;23.25;21.00;11.75
73825;PMS5003;64145;55.060;73.168;2023-05-29T14:55:53;22.50;20.50;11.25
73825;PMS5003;64145;55.060;73.168;2023-05-29T14:58:21;28.50;25.50;14.00
73825;PMS5003;64145;55.060;73.168;2023-05-29T15:06:15;25.00;25.00;18.00
73825;PMS5003;64145;55.060;73.168;2023-05-29T15:08:40;37.33;32.00;20.00
73825;PMS5003;64145;55.060;73.168;2023-05-29T15:11:08;52.50;42.75;25.50
73825;PMS5003;64145;55.060;73.168;2023-05-29T15:13:34;44.75;37.25;22.00
73825;PMS5003;64145;55.060;73.168;2023-05-29T15:18:44;31.00;29.00;19.00
73825;PMS5003;64145;55.060;73.168;2023-05-29T15:21:29;30.50;29.00;18.25
73825;PMS5003;64145;55.060;73.168;2023-05-29T15:23:55;27.75;27.00;18.00
73825;PMS5003;64145;55.060;73.168;2023-05-29T15:26:22;25.00;23.00;17.00
73825;PMS5003;64145;55.060;73.168;2023-05-29T15:28:47;25.67;25.00;18.00
73825;PMS5003;64145;55.060;73.168;2023-05-29T15:31:13;23.00;23.00;17.00
73825;PMS5003;64145;55.060;73.168;2023-05-29T15:33:38;24.00;23.00;16.00
73825;PMS5003;64145;55.060;73.168;2023-05-29T15:36:05;24.00;23.00;16.00
73825;PMS5003;64145;55.060;73.168;2023-05-29T15:38:49;25.00;24.00;16.00
73825;PMS5003;64145;55.060;73.168;2023-05-29T15:41:14;24.33;23.00;13.00
73825;PMS5003;64145;55.060;73.168;2023-05-29T15:43:58;24.00;23.00;12.00
73825;PMS5003;64145;55.060;73.168;2023-05-29T15:46:27;25.00;23.00;13.00
73825;PMS5003;64145;55.060;73.168;2023-05-29T15:48:54;24.50;22.00;13.00
73825;PMS5003;64145;55.060;73.168;2023-05-29T15:51:19;25.00;22.00;15.00
73825;PMS5003;64145;55.060;73.168;2023-05-29T15:53:45;27.33;25.33;16.33
73825;PMS5003;64145;55.060;73.168;2023-05-29T15:56:29;27.25;25.00;16.00
73825;PMS5003;64145;55.060;73.168;2023-05-29T15:58:55;27.00;24.00;15.67
73825;PMS5003;64145;55.060;73.168;2023-05-29T16:01:20;24.33;23.33;16.00
73825;PMS5003;64145;55.060;73.168;2023-05-29T16:04:04;27.50;23.75;15.50
73825;PMS5003;64145;55.060;73.168;2023-05-29T16:06:31;27.00;26.00;15.00
73825;PMS5003;64145;55.060;73.168;2023-05-29T16:11:41;27.00;27.00;18.00
73825;PMS5003;64145;55.060;73.168;2023-05-29T16:14:07;27.00;26.00;17.00
73825;PMS5003;64145;55.060;73.168;2023-05-29T16:16:33;25.75;24.75;15.25
73825;PMS5003;64145;55.060;73.168;2023-05-29T16:21:42;25.00;24.75;14.00
73825;PMS5003;64145;55.060;73.168;2023-05-29T16:24:08;23.50;22.00;14.00